sensor_id;sensor_type;location;lat;lon;timestamp;temperature;humidity
32839;DHT22;19182;41.820;12.808;2023-02-15T00:01:13;2.00;99.90
32839;DHT22;19182;41.820;12.808;2023-02-15T00:03:39;2.10;99.90
32839;DHT22;19182;41.820;12.808;2023-02-15T00:06:05;2.00;99.90
32839;DHT22;19182;41.820;12.808;2023-02-15T00:08:31;2.00;99.90
32839;DHT22;19182;41.820;12.808;2023-02-15T00:11:17;2.20;99.90
32839;DHT22;19182;41.820;12.808;2023-02-15T00:14:25;2.10;99.90
32839;DHT22;19182;41.820;12.808;2023-02-15T00:16:51;2.10;99.90
32839;DHT22;19182;41.820;12.808;2023-02-15T00:19:19;2.10;99.90
32839;DHT22;19182;41.820;12.808;2023-02-15T00:21:46;2.10;99.90
32839;DHT22;19182;41.820;12.808;2023-02-15T00:24:14;2.00;99.90
32839;DHT22;19182;41.820;12.808;2023-02-15T00:26:41;2.30;99.90
32839;DHT22;19182;41.820;12.808;2023-02-15T00:29:08;2.40;99.90
32839;DHT22;19182;41.820;12.808;2023-02-15T00:31:34;1.90;99.90
32839;DHT22;19182;41.820;12.808;2023-02-15T00:34:05;1.90;99.90
32839;DHT22;19182;41.820;12.808;2023-02-15T00:36:31;2.00;99.90
32839;DHT22;19182;41.820;12.808;2023-02-15T00:38:57;2.00;99.90
32839;DHT22;19182;41.820;12.808;2023-02-15T00:41:23;2.30;99.90
32839;DHT22;19182;41.820;12.808;2023-02-15T00:43:48;2.80;99.90
32839;DHT22;19182;41.820;12.808;2023-02-15T00:46:14;2.60;99.90
32839;DHT22;19182;41.820;12.808;2023-02-15T00:48:39;2.30;99.90
32839;DHT22;19182;41.820;12.808;2023-02-15T00:51:06;2.30;99.90
32839;DHT22;19182;41.820;12.808;2023-02-15T00:53:34;2.10;99.90
32839;DHT22;19182;41.820;12.808;2023-02-15T00:56:00;2.40;99.90
32839;DHT22;19182;41.820;12.808;2023-02-15T00:58:25;2.50;99.90
32839;DHT22;19182;41.820;12.808;2023-02-15T01:00:52;2.70;99.90
32839;DHT22;19182;41.820;12.808;2023-02-15T01:03:19;2.70;99.90
32839;DHT22;19182;41.820;12.808;2023-02-15T01:05:46;2.60;99.90
32839;DHT22;19182;41.820;12.808;2023-02-15T01:08:12;2.50;99.90
32839;DHT22;19182;41.820;12.808;2023-02-15T01:10:38;2.50;99.90
32839;DHT22;19182;41.820;12.808;2023-02-15T01:13:04;2.60;99.90
32839;DHT22;19182;41.820;12.808;2023-02-15T01:15:30;2.70;99.90
32839;DHT22;19182;41.820;12.808;2023-02-15T01:17:57;2.80;99.90
32839;DHT22;19182;41.820;12.808;2023-02-15T01:20:27;2.80;99.90
32839;DHT22;19182;41.820;12.808;2023-02-15T01:22:54;2.80;99.90
32839;DHT22;19182;41.820;12.808;2023-02-15T01:25:22;2.80;99.90
32839;DHT22;19182;41.820;12.808;2023-02-15T01:27:48;2.60;99.90
32839;DHT22;19182;41.820;12.808;2023-02-15T01:30:16;2.60;99.90
32839;DHT22;19182;41.820;12.808;2023-02-15T01:32:42;2.40;99.90
32839;DHT22;19182;41.820;12.808;2023-02-15T01:35:09;2.40;99.90
32839;DHT22;19182;41.820;12.808;2023-02-15T01:37:35;2.40;99.90
32839;DHT22;19182;41.820;12.808;2023-02-15T01:40:02;2.20;99.90
32839;DHT22;19182;41.820;12.808;2023-02-15T01:42:29;2.20;99.90
32839;DHT22;19182;41.820;12.808;2023-02-15T01:44:56;2.00;99.90
32839;DHT22;19182;41.820;12.808;2023-02-15T01:47:36;1.80;99.90
32839;DHT22;19182;41.820;12.808;2023-02-15T01:50:12;1.90;99.90
32839;DHT22;19182;41.820;12.808;2023-02-15T01:58:17;2.80;99.90
32839;DHT22;19182;41.820;12.808;2023-02-15T02:00:43;2.70;99.90
32839;DHT22;19182;41.820;12.808;2023-02-15T02:03:10;2.70;99.90
32839;DHT22;19182;41.820;12.808;2023-02-15T02:05:36;2.70;99.90
32839;DHT22;19182;41.820;12.808;2023-02-15T02:08:04;2.70;99.90
32839;DHT22;19182;41.820;12.808;2023-02-15T02:10:30;2.80;99.90
32839;DHT22;19182;41.820;12.808;2023-02-15T02:13:00;2.70;99.90
32839;DHT22;19182;41.820;12.808;2023-02-15T02:15:44;2.60;99.90
32839;DHT22;19182;41.820;12.808;2023-02-15T02:18:17;2.50;99.90
32839;DHT22;19182;41.820;12.808;2023-02-15T02:29:33;2.00;99.90
32839;DHT22;19182;41.820;12.808;2023-02-15T02:35:17;2.10;99.90
32839;DHT22;19182;41.820;12.808;2023-02-15T02:41:20;2.00;99.90
32839;DHT22;19182;41.820;12.808;2023-02-15T02:46:59;2.00;99.90
32839;DHT22;19182;41.820;12.808;2023-02-15T02:49:44;2.00;99.90
32839;DHT22;19182;41.820;12.808;2023-02-15T02:54:58;2.10;99.90
32839;DHT22;19182;41.820;12.808;2023-02-15T02:57:27;2.10;99.90
32839;DHT22;19182;41.820;12.808;2023-02-15T02:59:54;2.20;99.90
32839;DHT22;19182;41.820;12.808;2023-02-15T03:02:27;2.20;99.90
32839;DHT22;19182;41.820;12.808;2023-02-15T03:05:00;2.20;99.90
32839;DHT22;19182;41.820;12.808;2023-02-15T03:07:30;2.30;99.90
32839;DHT22;19182;41.820;12.808;2023-02-15T03:09:58;2.80;99.90
32839;DHT22;19182;41.820;12.808;2023-02-15T03:12:33;2.60;99.90
32839;DHT22;19182;41.820;12.808;2023-02-15T03:15:14;2.20;99.90
32839;DHT22;19182;41.820;12.808;2023-02-15T03:17:43;2.10;99.90
32839;DHT22;19182;41.820;12.808;2023-02-15T03:20:27;2.00;99.90
32839;DHT22;19182;41.820;12.808;2023-02-15T03:23:01;2.00;99.90
32839;DHT22;19182;41.820;12.808;2023-02-15T03:25:38;1.90;99.90
32839;DHT22;19182;41.820;12.808;2023-02-15T03:28:08;2.00;99.90
32839;DHT22;19182;41.820;12.808;2023-02-15T03:30:36;1.90;99.90
32839;DHT22;19182;41.820;12.808;2023-02-15T03:33:04;1.50;99.90
32839;DHT22;19182;41.820;12.808;2023-02-15T03:35:39;1.60;99.90
32839;DHT22;19182;41.820;12.808;2023-02-15T03:38:07;1.40;99.90
32839;DHT22;19182;41.820;12.808;2023-02-15T03:40:45;1.50;99.90
32839;DHT22;19182;41.820;12.808;2023-02-15T03:44:02;1.50;99.90
32839;DHT22;19182;41.820;12.808;2023-02-15T03:46:46;1.70;99.90
32839;DHT22;19182;41.820;12.808;2023-02-15T03:52:05;2.00;99.90
32839;DHT22;19182;41.820;12.808;2023-02-15T03:54:34;2.20;99.90
32839;DHT22;19182;41.820;12.808;2023-02-15T03:57:28;2.30;99.90
32839;DHT22;19182;41.820;12.808;2023-02-15T04:00:32;2.30;99.90
32839;DHT22;19182;41.820;12.808;2023-02-15T04:03:29;2.20;99.90
32839;DHT22;19182;41.820;12.808;2023-02-15T04:05:56;2.10;99.90
32839;DHT22;19182;41.820;12.808;2023-02-15T04:08:22;2.00;99.90
32839;DHT22;19182;41.820;12.808;2023-02-15T04:11:08;1.90;99.90
32839;DHT22;19182;41.820;12.808;2023-02-15T04:13:35;1.80;99.90
32839;DHT22;19182;41.820;12.808;2023-02-15T04:16:01;1.60;99.90
32839;DHT22;19182;41.820;12.808;2023-02-15T04:18:40;1.50;99.90
32839;DHT22;19182;41.820;12.808;2023-02-15T04:21:26;1.50;99.90
32839;DHT22;19182;41.820;12.808;2023-02-15T04:24:11;2.50;99.90
32839;DHT22;19182;41.820;12.808;2023-02-15T04:26:55;1.70;99.90
32839;DHT22;19182;41.820;12.808;2023-02-15T04:29:24;1.90;99.90
32839;DHT22;19182;41.820;12.808;2023-02-15T04:31:52;2.00;99.90
32839;DHT22;19182;41.820;12.808;2023-02-15T04:34:17;2.60;99.90
32839;DHT22;19182;41.820;12.808;2023-02-15T04:36:43;2.10;99.90
32839;DHT22;19182;41.820;12.808;2023-02-15T04:39:09;2.20;99.90
32839;DHT22;19182;41.820;12.808;2023-02-15T04:41:37;2.30;99.90
32839;DHT22;19182;41.820;12.808;2023-02-15T04:44:03;2.10;99.90
32839;DHT22;19182;41.820;12.808;2023-02-15T04:46:29;2.00;99.90
32839;DHT22;19182;41.820;12.808;2023-02-15T04:48:55;2.00;99.90
32839;DHT22;19182;41.820;12.808;2023-02-15T04:51:21;2.10;99.90
32839;DHT22;19182;41.820;12.808;2023-02-15T04:53:46;2.20;99.90
32839;DHT22;19182;41.820;12.808;2023-02-15T04:56:12;2.20;99.90
32839;DHT22;19182;41.820;12.808;2023-02-15T04:58:38;2.70;99.90
32839;DHT22;19182;41.820;12.808;2023-02-15T05:01:07;2.20;99.90
32839;DHT22;19182;41.820;12.808;2023-02-15T05:03:33;2.10;99.90
32839;DHT22;19182;41.820;12.808;2023-02-15T05:05:58;2.40;99.90
32839;DHT22;19182;41.820;12.808;2023-02-15T05:08:24;2.00;99.90
32839;DHT22;19182;41.820;12.808;2023-02-15T05:10:50;1.60;99.90
32839;DHT22;19182;41.820;12.808;2023-02-15T05:13:16;1.50;99.90
32839;DHT22;19182;41.820;12.808;2023-02-15T05:15:47;2.00;99.90
32839;DHT22;19182;41.820;12.808;2023-02-15T05:18:14;2.00;99.90
32839;DHT22;19182;41.820;12.808;2023-02-15T05:20:41;1.60;99.90
32839;DHT22;19182;41.820;12.808;2023-02-15T05:23:07;1.70;99.90
32839;DHT22;19182;41.820;12.808;2023-02-15T05:25:33;1.80;99.90
32839;DHT22;19182;41.820;12.808;2023-02-15T05:28:17;1.80;99.90
32839;DHT22;19182;41.820;12.808;2023-02-15T05:33:12;2.10;99.90
32839;DHT22;19182;41.820;12.808;2023-02-15T05:35:37;2.10;99.90
32839;DHT22;19182;41.820;12.808;2023-02-15T05:38:04;2.70;99.90
32839;DHT22;19182;41.820;12.808;2023-02-15T05:40:30;2.60;99.90
32839;DHT22;19182;41.820;12.808;2023-02-15T05:42:56;2.10;99.90
32839;DHT22;19182;41.820;12.808;2023-02-15T05:45:23;2.10;99.90
32839;DHT22;19182;41.820;12.808;2023-02-15T05:47:49;2.30;99.90
32839;DHT22;19182;41.820;12.808;2023-02-15T05:50:14;2.70;99.90
32839;DHT22;19182;41.820;12.808;2023-02-15T05:52:40;2.10;99.90
32839;DHT22;19182;41.820;12.808;2023-02-15T05:55:06;2.00;99.90
32839;DHT22;19182;41.820;12.808;2023-02-15T05:57:34;2.00;99.90
32839;DHT22;19182;41.820;12.808;2023-02-15T06:00:00;2.20;99.90
32839;DHT22;19182;41.820;12.808;2023-02-15T06:02:26;2.10;99.90
32839;DHT22;19182;41.820;12.808;2023-02-15T06:04:52;2.40;99.90
32839;DHT22;19182;41.820;12.808;2023-02-15T06:07:17;2.20;99.90
32839;DHT22;19182;41.820;12.808;2023-02-15T06:09:43;2.40;99.90
32839;DHT22;19182;41.820;12.808;2023-02-15T06:12:09;2.30;99.90
32839;DHT22;19182;41.820;12.808;2023-02-15T06:14:34;2.40;99.90
32839;DHT22;19182;41.820;12.808;2023-02-15T06:17:00;2.30;99.90
32839;DHT22;19182;41.820;12.808;2023-02-15T06:19:28;2.40;99.90
32839;DHT22;19182;41.820;12.808;2023-02-15T06:21:54;2.50;99.90
32839;DHT22;19182;41.820;12.808;2023-02-15T06:24:20;2.50;99.90
32839;DHT22;19182;41.820;12.808;2023-02-15T06:26:45;2.60;99.90
32839;DHT22;19182;41.820;12.808;2023-02-15T06:29:11;2.70;99.90
32839;DHT22;19182;41.820;12.808;2023-02-15T06:31:37;2.70;99.90
32839;DHT22;19182;41.820;12.808;2023-02-15T06:34:03;2.70;99.90
32839;DHT22;19182;41.820;12.808;2023-02-15T06:36:30;2.80;99.90
32839;DHT22;19182;41.820;12.808;2023-02-15T06:38:58;3.00;99.90
32839;DHT22;19182;41.820;12.808;2023-02-15T06:41:24;2.90;99.90
32839;DHT22;19182;41.820;12.808;2023-02-15T06:43:50;2.90;99.90
32839;DHT22;19182;41.820;12.808;2023-02-15T06:46:16;2.90;99.90
32839;DHT22;19182;41.820;12.808;2023-02-15T06:48:42;3.00;99.90
32839;DHT22;19182;41.820;12.808;2023-02-15T06:51:08;3.30;99.90
32839;DHT22;19182;41.820;12.808;2023-02-15T06:53:33;3.50;99.90
32839;DHT22;19182;41.820;12.808;2023-02-15T06:56:06;3.60;99.90
32839;DHT22;19182;41.820;12.808;2023-02-15T06:58:35;3.80;99.90
32839;DHT22;19182;41.820;12.808;2023-02-15T07:01:01;5.30;99.90
32839;DHT22;19182;41.820;12.808;2023-02-15T07:03:26;5.40;99.90
32839;DHT22;19182;41.820;12.808;2023-02-15T07:05:56;6.60;99.90
32839;DHT22;19182;41.820;12.808;2023-02-15T07:08:22;8.70;99.90
32839;DHT22;19182;41.820;12.808;2023-02-15T07:10:49;9.20;99.90
32839;DHT22;19182;41.820;12.808;2023-02-15T07:13:15;9.70;99.90
32839;DHT22;19182;41.820;12.808;2023-02-15T07:15:42;10.40;99.90
32839;DHT22;19182;41.820;12.808;2023-02-15T07:18:07;11.00;99.90
32839;DHT22;19182;41.820;12.808;2023-02-15T07:20:34;11.80;99.90
32839;DHT22;19182;41.820;12.808;2023-02-15T07:23:01;11.80;99.90
32839;DHT22;19182;41.820;12.808;2023-02-15T07:25:27;11.90;99.90
32839;DHT22;19182;41.820;12.808;2023-02-15T07:28:03;12.60;99.90
32839;DHT22;19182;41.820;12.808;2023-02-15T07:30:29;13.10;99.90
32839;DHT22;19182;41.820;12.808;2023-02-15T07:32:58;13.60;99.90
32839;DHT22;19182;41.820;12.808;2023-02-15T07:35:47;14.60;99.90
32839;DHT22;19182;41.820;12.808;2023-02-15T07:38:17;15.00;99.90
32839;DHT22;19182;41.820;12.808;2023-02-15T07:40:43;15.50;99.90
32839;DHT22;19182;41.820;12.808;2023-02-15T07:43:09;16.60;99.90
32839;DHT22;19182;41.820;12.808;2023-02-15T07:45:36;16.60;98.70
32839;DHT22;19182;41.820;12.808;2023-02-15T07:48:05;16.80;98.20
32839;DHT22;19182;41.820;12.808;2023-02-15T07:50:31;17.40;96.00
32839;DHT22;19182;41.820;12.808;2023-02-15T07:52:57;17.60;94.80
32839;DHT22;19182;41.820;12.808;2023-02-15T07:55:25;17.40;94.00
32839;DHT22;19182;41.820;12.808;2023-02-15T07:57:51;17.10;93.90
32839;DHT22;19182;41.820;12.808;2023-02-15T08:00:19;16.70;94.60
32839;DHT22;19182;41.820;12.808;2023-02-15T08:02:49;17.70;94.10
32839;DHT22;19182;41.820;12.808;2023-02-15T08:05:37;18.00;92.00
32839;DHT22;19182;41.820;12.808;2023-02-15T08:08:02;17.80;92.30
32839;DHT22;19182;41.820;12.808;2023-02-15T08:10:28;17.80;91.70
32839;DHT22;19182;41.820;12.808;2023-02-15T08:13:12;18.20;91.50
32839;DHT22;19182;41.820;12.808;2023-02-15T08:15:38;19.30;90.60
32839;DHT22;19182;41.820;12.808;2023-02-15T08:18:04;19.90;86.90
32839;DHT22;19182;41.820;12.808;2023-02-15T08:20:30;21.10;83.60
32839;DHT22;19182;41.820;12.808;2023-02-15T08:22:55;21.00;80.40
32839;DHT22;19182;41.820;12.808;2023-02-15T08:25:21;20.90;80.40
32839;DHT22;19182;41.820;12.808;2023-02-15T08:27:49;21.30;76.70
32839;DHT22;19182;41.820;12.808;2023-02-15T08:30:16;21.60;75.10
32839;DHT22;19182;41.820;12.808;2023-02-15T08:32:41;21.60;73.40
32839;DHT22;19182;41.820;12.808;2023-02-15T08:35:07;22.60;72.50
32839;DHT22;19182;41.820;12.808;2023-02-15T08:37:34;23.40;70.50
32839;DHT22;19182;41.820;12.808;2023-02-15T08:40:01;23.30;68.30
32839;DHT22;19182;41.820;12.808;2023-02-15T08:42:29;23.60;66.50
32839;DHT22;19182;41.820;12.808;2023-02-15T08:44:56;23.10;66.90
32839;DHT22;19182;41.820;12.808;2023-02-15T08:47:22;23.10;67.60
32839;DHT22;19182;41.820;12.808;2023-02-15T08:49:48;23.60;66.20
32839;DHT22;19182;41.820;12.808;2023-02-15T08:52:15;23.60;66.70
32839;DHT22;19182;41.820;12.808;2023-02-15T08:54:42;24.50;64.00
32839;DHT22;19182;41.820;12.808;2023-02-15T08:57:08;25.70;62.40
32839;DHT22;19182;41.820;12.808;2023-02-15T08:59:35;26.70;58.70
32839;DHT22;19182;41.820;12.808;2023-02-15T09:02:03;25.50;58.40
32839;DHT22;19182;41.820;12.808;2023-02-15T09:04:29;24.90;58.80
32839;DHT22;19182;41.820;12.808;2023-02-15T09:06:54;25.20;58.20
32839;DHT22;19182;41.820;12.808;2023-02-15T09:09:21;25.10;59.50
32839;DHT22;19182;41.820;12.808;2023-02-15T09:11:51;26.20;57.80
32839;DHT22;19182;41.820;12.808;2023-02-15T09:14:18;27.10;55.60
32839;DHT22;19182;41.820;12.808;2023-02-15T09:16:46;28.10;54.00
32839;DHT22;19182;41.820;12.808;2023-02-15T09:19:15;28.30;53.40
32839;DHT22;19182;41.820;12.808;2023-02-15T09:21:42;27.20;53.80
32839;DHT22;19182;41.820;12.808;2023-02-15T09:24:32;27.90;52.10
32839;DHT22;19182;41.820;12.808;2023-02-15T09:26:59;28.60;52.70
32839;DHT22;19182;41.820;12.808;2023-02-15T09:29:26;27.70;51.50
32839;DHT22;19182;41.820;12.808;2023-02-15T09:31:51;26.90;51.30
32839;DHT22;19182;41.820;12.808;2023-02-15T09:34:20;27.80;50.50
32839;DHT22;19182;41.820;12.808;2023-02-15T09:36:47;29.20;49.80
32839;DHT22;19182;41.820;12.808;2023-02-15T09:52:56;31.90;43.80
32839;DHT22;19182;41.820;12.808;2023-02-15T10:02:06;30.60;46.00
32839;DHT22;19182;41.820;12.808;2023-02-15T10:12:52;29.50;47.30
32839;DHT22;19182;41.820;12.808;2023-02-15T10:15:50;31.00;45.30
32839;DHT22;19182;41.820;12.808;2023-02-15T10:18:43;31.20;45.10
32839;DHT22;19182;41.820;12.808;2023-02-15T10:26:22;31.20;44.70
32839;DHT22;19182;41.820;12.808;2023-02-15T10:28:53;32.10;43.80
32839;DHT22;19182;41.820;12.808;2023-02-15T10:34:19;29.90;45.60
32839;DHT22;19182;41.820;12.808;2023-02-15T10:42:19;32.00;43.50
32839;DHT22;19182;41.820;12.808;2023-02-15T10:55:43;31.90;41.90
32839;DHT22;19182;41.820;12.808;2023-02-15T10:58:19;32.30;42.90
32839;DHT22;19182;41.820;12.808;2023-02-15T11:06:35;32.30;42.10
32839;DHT22;19182;41.820;12.808;2023-02-15T11:09:09;34.00;41.00
32839;DHT22;19182;41.820;12.808;2023-02-15T11:11:40;32.50;40.30
32839;DHT22;19182;41.820;12.808;2023-02-15T11:14:31;33.50;40.50
32839;DHT22;19182;41.820;12.808;2023-02-15T11:17:06;34.20;40.00
32839;DHT22;19182;41.820;12.808;2023-02-15T11:19:39;33.60;40.70
32839;DHT22;19182;41.820;12.808;2023-02-15T11:22:10;33.20;41.20
32839;DHT22;19182;41.820;12.808;2023-02-15T11:24:44;32.20;41.30
32839;DHT22;19182;41.820;12.808;2023-02-15T11:27:24;31.80;41.60
32839;DHT22;19182;41.820;12.808;2023-02-15T11:30:21;32.60;42.10
32839;DHT22;19182;41.820;12.808;2023-02-15T11:32:57;32.50;41.80
32839;DHT22;19182;41.820;12.808;2023-02-15T11:35:33;33.00;41.00
32839;DHT22;19182;41.820;12.808;2023-02-15T11:41:11;33.80;40.60
32839;DHT22;19182;41.820;12.808;2023-02-15T11:43:48;31.90;40.90
32839;DHT22;19182;41.820;12.808;2023-02-15T11:46:16;32.30;41.90
32839;DHT22;19182;41.820;12.808;2023-02-15T11:48:44;32.50;41.40
32839;DHT22;19182;41.820;12.808;2023-02-15T11:51:14;32.00;42.00
32839;DHT22;19182;41.820;12.808;2023-02-15T11:53:42;31.80;42.60
32839;DHT22;19182;41.820;12.808;2023-02-15T11:56:25;30.80;42.90
32839;DHT22;19182;41.820;12.808;2023-02-15T11:59:00;29.30;45.10
32839;DHT22;19182;41.820;12.808;2023-02-15T12:01:36;27.70;47.60
32839;DHT22;19182;41.820;12.808;2023-02-15T12:04:38;27.40;48.70
32839;DHT22;19182;41.820;12.808;2023-02-15T12:07:35;27.10;48.10
32839;DHT22;19182;41.820;12.808;2023-02-15T12:12:46;25.90;51.50
32839;DHT22;19182;41.820;12.808;2023-02-15T12:15:13;25.50;51.10
32839;DHT22;19182;41.820;12.808;2023-02-15T12:17:41;25.10;52.70
32839;DHT22;19182;41.820;12.808;2023-02-15T12:22:39;23.70;55.70
32839;DHT22;19182;41.820;12.808;2023-02-15T12:27:58;23.80;56.30
32839;DHT22;19182;41.820;12.808;2023-02-15T12:35:47;22.20;59.20
32839;DHT22;19182;41.820;12.808;2023-02-15T12:40:57;22.00;60.80
32839;DHT22;19182;41.820;12.808;2023-02-15T12:43:32;22.00;60.70
32839;DHT22;19182;41.820;12.808;2023-02-15T12:46:23;22.10;60.50
32839;DHT22;19182;41.820;12.808;2023-02-15T12:49:18;22.00;61.00
32839;DHT22;19182;41.820;12.808;2023-02-15T12:54:41;22.00;61.70
32839;DHT22;19182;41.820;12.808;2023-02-15T12:57:25;21.60;62.60
32839;DHT22;19182;41.820;12.808;2023-02-15T13:00:00;21.40;63.50
32839;DHT22;19182;41.820;12.808;2023-02-15T13:02:43;21.50;62.80
32839;DHT22;19182;41.820;12.808;2023-02-15T13:07:51;20.10;65.60
32839;DHT22;19182;41.820;12.808;2023-02-15T13:10:26;20.80;67.10
32839;DHT22;19182;41.820;12.808;2023-02-15T13:12:53;20.70;66.70
32839;DHT22;19182;41.820;12.808;2023-02-15T13:15:44;20.50;67.90
32839;DHT22;19182;41.820;12.808;2023-02-15T13:18:22;20.70;68.10
32839;DHT22;19182;41.820;12.808;2023-02-15T13:20:51;20.90;67.10
32839;DHT22;19182;41.820;12.808;2023-02-15T13:23:27;20.90;68.20
32839;DHT22;19182;41.820;12.808;2023-02-15T13:25:58;20.70;68.10
32839;DHT22;19182;41.820;12.808;2023-02-15T13:28:38;20.70;68.60
32839;DHT22;19182;41.820;12.808;2023-02-15T13:31:12;20.60;69.10
32839;DHT22;19182;41.820;12.808;2023-02-15T13:33:42;20.00;70.30
32839;DHT22;19182;41.820;12.808;2023-02-15T13:36:38;20.00;72.00
32839;DHT22;19182;41.820;12.808;2023-02-15T13:47:34;19.60;73.90
32839;DHT22;19182;41.820;12.808;2023-02-15T13:52:29;19.50;76.00
32839;DHT22;19182;41.820;12.808;2023-02-15T14:00:58;18.90;79.70
32839;DHT22;19182;41.820;12.808;2023-02-15T14:13:44;18.50;87.00
32839;DHT22;19182;41.820;12.808;2023-02-15T14:19:16;18.20;90.60
32839;DHT22;19182;41.820;12.808;2023-02-15T14:21:47;18.30;91.30
32839;DHT22;19182;41.820;12.808;2023-02-15T14:27:40;17.90;94.30
32839;DHT22;19182;41.820;12.808;2023-02-15T14:30:18;17.90;95.50
32839;DHT22;19182;41.820;12.808;2023-02-15T14:32:49;17.80;95.10
32839;DHT22;19182;41.820;12.808;2023-02-15T14:35:26;17.50;96.80
32839;DHT22;19182;41.820;12.808;2023-02-15T14:46:23;17.00;99.90
32839;DHT22;19182;41.820;12.808;2023-02-15T14:48:55;16.90;99.90
32839;DHT22;19182;41.820;12.808;2023-02-15T14:54:09;16.90;99.90
32839;DHT22;19182;41.820;12.808;2023-02-15T14:56:36;16.60;99.90
32839;DHT22;19182;41.820;12.808;2023-02-15T14:59:19;16.60;99.90
32839;DHT22;19182;41.820;12.808;2023-02-15T15:02:09;16.50;99.90
32839;DHT22;19182;41.820;12.808;2023-02-15T15:07:51;16.30;99.90
32839;DHT22;19182;41.820;12.808;2023-02-15T15:12:51;16.20;99.90
32839;DHT22;19182;41.820;12.808;2023-02-15T15:20:40;16.00;99.90
32839;DHT22;19182;41.820;12.808;2023-02-15T15:31:20;15.70;99.90
32839;DHT22;19182;41.820;12.808;2023-02-15T15:45:45;15.30;99.90
32839;DHT22;19182;41.820;12.808;2023-02-15T15:48:28;15.10;99.90
32839;DHT22;19182;41.820;12.808;2023-02-15T15:51:02;15.10;99.90
32839;DHT22;19182;41.820;12.808;2023-02-15T15:53:34;15.00;99.90
32839;DHT22;19182;41.820;12.808;2023-02-15T15:56:08;14.90;99.90
32839;DHT22;19182;41.820;12.808;2023-02-15T15:58:37;14.80;99.90
32839;DHT22;19182;41.820;12.808;2023-02-15T16:01:11;14.60;99.90
32839;DHT22;19182;41.820;12.808;2023-02-15T16:03:49;14.60;99.90
32839;DHT22;19182;41.820;12.808;2023-02-15T16:06:33;14.40;99.90
32839;DHT22;19182;41.820;12.808;2023-02-15T16:09:19;14.30;99.90
32839;DHT22;19182;41.820;12.808;2023-02-15T16:11:57;14.10;99.90
32839;DHT22;19182;41.820;12.808;2023-02-15T16:14:38;14.00;99.90
32839;DHT22;19182;41.820;12.808;2023-02-15T16:17:07;13.80;99.90
32839;DHT22;19182;41.820;12.808;2023-02-15T16:19:39;13.80;99.90
32839;DHT22;19182;41.820;12.808;2023-02-15T16:22:19;13.60;99.90
32839;DHT22;19182;41.820;12.808;2023-02-15T16:27:33;13.40;99.90
32839;DHT22;19182;41.820;12.808;2023-02-15T16:30:22;13.10;99.90
32839;DHT22;19182;41.820;12.808;2023-02-15T16:32:49;13.00;99.90
32839;DHT22;19182;41.820;12.808;2023-02-15T16:35:20;12.90;99.90
32839;DHT22;19182;41.820;12.808;2023-02-15T16:37:46;12.90;99.90
32839;DHT22;19182;41.820;12.808;2023-02-15T16:42:52;12.50;99.90
32839;DHT22;19182;41.820;12.808;2023-02-15T16:45:22;12.20;99.90
32839;DHT22;19182;41.820;12.808;2023-02-15T16:47:55;12.10;99.90
32839;DHT22;19182;41.820;12.808;2023-02-15T16:50:46;12.00;99.90
32839;DHT22;19182;41.820;12.808;2023-02-15T16:53:19;11.80;99.90
32839;DHT22;19182;41.820;12.808;2023-02-15T16:55:53;11.50;99.90
32839;DHT22;19182;41.820;12.808;2023-02-15T16:58:26;11.30;99.90
32839;DHT22;19182;41.820;12.808;2023-02-15T17:00:58;11.10;99.90
32839;DHT22;19182;41.820;12.808;2023-02-15T17:03:25;11.00;99.90
32839;DHT22;19182;41.820;12.808;2023-02-15T17:06:00;10.70;99.90
32839;DHT22;19182;41.820;12.808;2023-02-15T17:09:05;10.60;99.90
32839;DHT22;19182;41.820;12.808;2023-02-15T17:11:37;10.60;99.90
32839;DHT22;19182;41.820;12.808;2023-02-15T17:16:33;10.10;99.90
32839;DHT22;19182;41.820;12.808;2023-02-15T17:19:04;9.90;99.90
32839;DHT22;19182;41.820;12.808;2023-02-15T17:21:50;9.80;99.90
32839;DHT22;19182;41.820;12.808;2023-02-15T17:27:02;9.50;99.90
32839;DHT22;19182;41.820;12.808;2023-02-15T17:29:39;9.40;99.90
32839;DHT22;19182;41.820;12.808;2023-02-15T17:32:14;9.20;99.90
32839;DHT22;19182;41.820;12.808;2023-02-15T17:40:24;8.90;99.90
32839;DHT22;19182;41.820;12.808;2023-02-15T17:42:50;8.70;99.90
32839;DHT22;19182;41.820;12.808;2023-02-15T17:45:17;8.70;99.90
32839;DHT22;19182;41.820;12.808;2023-02-15T17:47:43;8.60;99.90
32839;DHT22;19182;41.820;12.808;2023-02-15T17:50:25;8.60;99.90
32839;DHT22;19182;41.820;12.808;2023-02-15T17:52:52;8.40;99.90
32839;DHT22;19182;41.820;12.808;2023-02-15T17:55:20;8.40;99.90
32839;DHT22;19182;41.820;12.808;2023-02-15T17:58:23;8.50;99.90
32839;DHT22;19182;41.820;12.808;2023-02-15T18:00:52;8.40;99.90
32839;DHT22;19182;41.820;12.808;2023-02-15T18:06:28;8.40;99.90
32839;DHT22;19182;41.820;12.808;2023-02-15T18:09:14;9.30;99.90
32839;DHT22;19182;41.820;12.808;2023-02-15T18:11:59;8.20;99.90
32839;DHT22;19182;41.820;12.808;2023-02-15T18:14:25;8.20;99.90
32839;DHT22;19182;41.820;12.808;2023-02-15T18:16:51;8.10;99.90
32839;DHT22;19182;41.820;12.808;2023-02-15T18:19:22;8.10;99.90
32839;DHT22;19182;41.820;12.808;2023-02-15T18:21:49;8.20;99.90
32839;DHT22;19182;41.820;12.808;2023-02-15T18:24:22;8.00;99.90
32839;DHT22;19182;41.820;12.808;2023-02-15T18:26:52;8.00;99.90
32839;DHT22;19182;41.820;12.808;2023-02-15T18:29:18;7.90;99.90
32839;DHT22;19182;41.820;12.808;2023-02-15T18:31:45;7.90;99.90
32839;DHT22;19182;41.820;12.808;2023-02-15T18:34:26;7.80;99.90
32839;DHT22;19182;41.820;12.808;2023-02-15T18:36:52;7.80;99.90
32839;DHT22;19182;41.820;12.808;2023-02-15T18:39:36;7.80;99.90
32839;DHT22;19182;41.820;12.808;2023-02-15T18:42:05;7.70;99.90
32839;DHT22;19182;41.820;12.808;2023-02-15T18:44:31;7.60;99.90
32839;DHT22;19182;41.820;12.808;2023-02-15T18:46:57;7.40;99.90
32839;DHT22;19182;41.820;12.808;2023-02-15T18:49:22;7.40;99.90
32839;DHT22;19182;41.820;12.808;2023-02-15T18:51:48;7.50;99.90
32839;DHT22;19182;41.820;12.808;2023-02-15T18:54:19;7.40;99.90
32839;DHT22;19182;41.820;12.808;2023-02-15T18:56:52;7.30;99.90
32839;DHT22;19182;41.820;12.808;2023-02-15T18:59:18;7.20;99.90
32839;DHT22;19182;41.820;12.808;2023-02-15T19:01:44;7.00;99.90
32839;DHT22;19182;41.820;12.808;2023-02-15T19:04:10;6.90;99.90
32839;DHT22;19182;41.820;12.808;2023-02-15T19:06:36;6.90;99.90
32839;DHT22;19182;41.820;12.808;2023-02-15T19:09:04;7.00;99.90
32839;DHT22;19182;41.820;12.808;2023-02-15T19:11:30;6.90;99.90
32839;DHT22;19182;41.820;12.808;2023-02-15T19:13:55;6.70;99.90
32839;DHT22;19182;41.820;12.808;2023-02-15T19:16:32;6.70;99.90
32839;DHT22;19182;41.820;12.808;2023-02-15T19:18:59;7.00;99.90
32839;DHT22;19182;41.820;12.808;2023-02-15T19:21:27;6.90;99.90